Time;durP1;ratioP1;P1;durP2;ratioP2;P2;SDS_P1;SDS_P2;PMS_P1;PMS_P2;Temp;Humidity;BMP_temperature;BMP_pressure;BME280_temperature;BME280_humidity;BME280_pressure;Samples;Min_cycle;Max_cycle;Signal;HPM_P1;HPM_P2
2021/08/25 00:00:01;;;;;;;1.20;0.98;;;24.80;54.40;;;;;;5021742;28;20903;-68
2021/08/25 00:02:26;;;;;;;1.48;1.00;;;24.90;54.40;;;;;;5021911;28;20408;-68
2021/08/25 00:04:52;;;;;;;1.47;1.00;;;24.90;54.40;;;;;;5021847;28;20446;-69
2021/08/25 00:07:17;;;;;;;1.20;0.93;;;24.90;54.40;;;;;;5021178;28;20516;-66
2021/08/25 00:09:43;;;;;;;1.40;1.00;;;24.80;54.90;;;;;;5021852;28;20387;-68
2021/08/25 00:12:11;;;;;;;1.33;1.00;;;24.80;54.40;;;;;;5021714;28;20406;-68
2021/08/25 00:14:41;;;;;;;1.23;0.98;;;24.90;54.40;;;;;;5021346;28;20395;-65
2021/08/25 00:17:08;;;;;;;2.00;1.20;;;24.80;54.50;;;;;;5021546;28;20441;-66
2021/08/25 00:19:34;;;;;;;1.40;1.10;;;24.80;54.40;;;;;;5021275;28;20413;-67
2021/08/25 00:22:00;;;;;;;1.45;1.00;;;24.80;54.50;;;;;;5021382;28;20423;-68
2021/08/25 00:24:26;;;;;;;1.47;0.90;;;24.80;54.50;;;;;;5021954;28;20383;-67
2021/08/25 00:26:51;;;;;;;1.40;1.00;;;24.90;54.40;;;;;;5019922;28;20469;-66
2021/08/25 00:29:17;;;;;;;2.07;1.43;;;24.80;54.40;;;;;;5019704;28;20414;-66
2021/08/25 00:31:43;;;;;;;1.13;0.90;;;24.80;54.40;;;;;;5019957;28;20399;-68
2021/08/25 00:34:09;;;;;;;1.40;1.00;;;24.80;54.30;;;;;;5053433;28;21138;-67
2021/08/25 00:36:35;;;;;;;2.45;1.10;;;24.80;54.30;;;;;;5052785;28;20399;-69
2021/08/25 00:39:01;;;;;;;1.30;1.02;;;24.80;54.30;;;;;;5020922;28;20901;-64
2021/08/25 00:41:27;;;;;;;1.30;1.00;;;24.80;54.30;;;;;;5020831;28;20423;-67
2021/08/25 00:43:53;;;;;;;1.40;1.10;;;24.80;54.30;;;;;;5020695;28;20941;-66
2021/08/25 00:46:19;;;;;;;1.30;1.00;;;24.80;54.30;;;;;;5021188;28;20452;-66
2021/08/25 00:48:48;;;;;;;1.60;1.23;;;24.80;54.30;;;;;;5021202;28;20465;-65
2021/08/25 00:51:14;;;;;;;1.63;1.13;;;24.80;54.40;;;;;;5021230;28;20409;-64
2021/08/25 00:53:42;;;;;;;1.50;1.27;;;24.80;54.30;;;;;;5021345;28;20466;-68
2021/08/25 00:56:07;;;;;;;1.50;1.20;;;24.80;54.30;;;;;;5021295;28;20430;-68
2021/08/25 00:58:38;;;;;;;1.40;0.90;;;24.80;54.30;;;;;;5021032;28;20942;-67
2021/08/25 01:01:52;;;;;;;1.40;0.95;;;24.80;54.30;;;;;;5020986;28;20415;-65
2021/08/25 01:04:41;;;;;;;1.77;1.20;;;24.80;54.30;;;;;;5018301;28;20387;-65
2021/08/25 01:07:10;;;;;;;1.45;1.15;;;24.80;54.30;;;;;;5017775;28;20421;-66
2021/08/25 01:09:39;;;;;;;1.40;1.10;;;24.80;54.30;;;;;;5019867;28;21671;-66
2021/08/25 01:12:07;;;;;;;1.30;1.00;;;24.80;54.30;;;;;;5019763;28;20486;-68
2021/08/25 01:14:34;;;;;;;1.27;1.00;;;24.80;54.40;;;;;;5021262;28;20795;-68
2021/08/25 01:17:00;;;;;;;2.13;1.20;;;24.70;54.40;;;;;;5021349;28;20795;-68
2021/08/25 01:19:28;;;;;;;1.70;1.13;;;24.70;54.50;;;;;;5020581;28;20407;-68
2021/08/25 01:21:54;;;;;;;1.45;1.05;;;24.70;54.40;;;;;;5021112;28;20427;-68
2021/08/25 01:24:20;;;;;;;1.80;1.20;;;24.70;54.40;;;;;;5020874;28;20391;-67
2021/08/25 01:26:51;;;;;;;1.50;1.20;;;24.80;54.40;;;;;;5021076;28;20808;-67
2021/08/25 01:29:29;;;;;;;1.83;1.20;;;24.80;54.30;;;;;;5020809;28;20387;-64
2021/08/25 01:31:55;;;;;;;1.60;1.17;;;24.70;54.40;;;;;;5021049;28;20406;-68
2021/08/25 01:34:21;;;;;;;1.77;1.40;;;24.80;54.40;;;;;;5020771;28;20394;-68
2021/08/25 01:36:52;;;;;;;1.30;1.00;;;24.70;54.40;;;;;;5020965;28;20474;-67
2021/08/25 01:39:19;;;;;;;1.50;1.10;;;24.70;54.40;;;;;;5020214;28;20391;-66
2021/08/25 01:41:45;;;;;;;1.50;1.30;;;24.70;54.40;;;;;;5018948;28;20924;-67
2021/08/25 01:44:11;;;;;;;1.52;1.30;;;24.70;54.40;;;;;;5020615;28;20868;-67
2021/08/25 01:46:38;;;;;;;1.70;1.30;;;24.80;54.40;;;;;;5020752;28;20404;-67
2021/08/25 01:49:15;;;;;;;2.03;1.58;;;24.80;54.30;;;;;;5052632;28;20465;-68
2021/08/25 01:51:42;;;;;;;1.70;1.40;;;24.80;54.30;;;;;;5019578;28;20487;-67
2021/08/25 01:54:08;;;;;;;1.98;1.35;;;24.70;54.30;;;;;;5020498;28;20756;-66
2021/08/25 01:56:34;;;;;;;2.30;1.30;;;24.70;54.30;;;;;;5022533;28;20399;-69
2021/08/25 01:59:01;;;;;;;1.70;1.48;;;24.70;54.30;;;;;;5024165;28;20413;-68
2021/08/25 02:01:26;;;;;;;1.67;1.30;;;24.70;54.30;;;;;;5023694;28;20426;-68
2021/08/25 02:03:52;;;;;;;1.70;1.50;;;24.80;54.30;;;;;;5023895;28;20739;-67
2021/08/25 02:06:17;;;;;;;1.80;1.48;;;24.80;54.30;;;;;;5023923;28;20387;-68
2021/08/25 02:08:43;;;;;;;1.60;1.30;;;24.70;54.30;;;;;;5023898;28;20422;-66
2021/08/25 02:11:09;;;;;;;1.73;1.38;;;24.70;54.20;;;;;;5024161;28;20413;-66
2021/08/25 02:13:35;;;;;;;1.70;1.30;;;24.70;54.20;;;;;;5023222;28;20778;-65
2021/08/25 02:16:00;;;;;;;1.88;1.42;;;24.80;54.30;;;;;;5024037;28;20403;-67
2021/08/25 02:18:26;;;;;;;1.80;1.40;;;24.70;54.30;;;;;;5023845;28;20457;-67
2021/08/25 02:20:52;;;;;;;1.88;1.40;;;24.70;54.20;;;;;;5023815;28;20434;-67
2021/08/25 02:23:17;;;;;;;1.80;1.50;;;24.70;54.20;;;;;;5023717;28;20394;-68
2021/08/25 02:25:43;;;;;;;1.80;1.45;;;24.70;54.30;;;;;;5023418;28;20485;-67
2021/08/25 02:28:09;;;;;;;1.80;1.40;;;24.70;54.30;;;;;;5023864;28;20486;-68
2021/08/25 02:30:35;;;;;;;1.73;1.40;;;24.70;54.20;;;;;;5023541;28;20993;-68
2021/08/25 02:33:01;;;;;;;1.65;1.40;;;24.70;54.30;;;;;;5023782;28;20474;-67
2021/08/25 02:35:26;;;;;;;1.60;1.40;;;24.70;54.30;;;;;;5023119;28;20786;-65
2021/08/25 02:37:52;;;;;;;3.00;1.70;;;24.70;54.30;;;;;;5023709;28;20410;-65
2021/08/25 02:40:18;;;;;;;1.97;1.60;;;24.70;54.30;;;;;;5023286;28;20586;-68
2021/08/25 02:42:44;;;;;;;2.15;1.65;;;24.70;54.30;;;;;;5023593;28;20403;-67
2021/08/25 02:45:10;;;;;;;1.77;1.40;;;24.70;54.30;;;;;;5023283;28;20403;-69
2021/08/25 02:47:36;;;;;;;1.67;1.40;;;24.70;54.30;;;;;;5022683;28;20406;-67
2021/08/25 02:50:02;;;;;;;2.10;1.60;;;24.70;54.20;;;;;;5023384;28;20486;-70
2021/08/25 02:52:28;;;;;;;1.93;1.73;;;24.60;54.30;;;;;;5023052;28;20539;-68
2021/08/25 02:54:53;;;;;;;1.77;1.38;;;24.70;54.30;;;;;;5023378;28;20431;-68
2021/08/25 02:57:19;;;;;;;1.70;1.40;;;24.70;54.30;;;;;;5022726;28;20494;-68
2021/08/25 02:59:45;;;;;;;1.60;1.30;;;24.70;54.30;;;;;;5023070;28;20398;-67
2021/08/25 03:02:10;;;;;;;1.83;1.50;;;24.70;54.30;;;;;;5022959;28;20441;-67
2021/08/25 03:04:36;;;;;;;1.63;1.35;;;24.70;54.20;;;;;;5054909;28;20395;-65
2021/08/25 03:07:02;;;;;;;2.58;1.50;;;24.60;54.40;;;;;;5022223;28;21180;-67
2021/08/25 03:09:27;;;;;;;2.17;1.60;;;24.70;54.40;;;;;;5022113;28;20395;-67
2021/08/25 03:11:53;;;;;;;1.90;1.52;;;24.70;54.30;;;;;;5023150;28;20490;-69
2021/08/25 03:14:19;;;;;;;1.40;1.23;;;24.70;54.10;;;;;;5022997;28;20894;-65
2021/08/25 03:16:44;;;;;;;1.73;1.48;;;24.70;54.40;;;;;;5022975;28;20883;-68
2021/08/25 03:19:10;;;;;;;1.80;1.38;;;24.70;54.60;;;;;;5022918;28;20410;-69
2021/08/25 03:21:36;;;;;;;3.22;1.38;;;24.80;54.60;;;;;;5022323;28;20508;-67
2021/08/25 03:24:01;;;;;;;1.90;1.50;;;24.80;54.60;;;;;;5022648;28;20394;-68
2021/08/25 03:26:27;;;;;;;11.60;1.67;;;24.80;54.50;;;;;;5023536;28;20929;-68
2021/08/25 03:28:53;;;;;;;2.30;1.50;;;24.90;54.40;;;;;;5023601;28;20394;-69
2021/08/25 03:31:18;;;;;;;2.03;1.30;;;24.90;54.80;;;;;;5023859;28;20454;-68
2021/08/25 03:33:44;;;;;;;3.33;1.52;;;24.90;55.10;;;;;;5022594;28;20863;-68
2021/08/25 03:36:09;;;;;;;3.53;1.40;;;25.00;55.00;;;;;;5023679;28;20410;-67
2021/08/25 03:38:35;;;;;;;2.42;1.40;;;25.00;54.90;;;;;;5023438;28;21301;-68
2021/08/25 03:41:01;;;;;;;2.83;1.57;;;25.00;54.80;;;;;;5021529;28;20612;-67
2021/08/25 03:43:27;;;;;;;2.05;1.48;;;25.00;54.60;;;;;;5021482;28;20449;-66
2021/08/25 03:45:52;;;;;;;2.20;1.50;;;25.00;54.40;;;;;;5023369;28;20399;-63
2021/08/25 03:48:18;;;;;;;3.03;1.50;;;25.00;54.40;;;;;;5021630;28;20427;-69
2021/08/25 03:50:43;;;;;;;1.85;1.48;;;25.00;54.40;;;;;;5023217;28;21082;-62
2021/08/25 03:53:09;;;;;;;2.90;1.37;;;25.00;54.20;;;;;;5022702;28;20403;-66
2021/08/25 03:55:35;;;;;;;1.73;1.48;;;25.10;54.30;;;;;;5021662;28;20399;-68
2021/08/25 03:58:00;;;;;;;3.30;1.50;;;25.10;54.80;;;;;;5053465;28;21164;-69
2021/08/25 04:00:26;;;;;;;3.40;1.42;;;25.10;54.70;;;;;;5021852;28;20443;-65
2021/08/25 04:02:52;;;;;;;1.90;1.30;;;25.10;55.10;;;;;;5022607;28;20505;-68
2021/08/25 04:05:17;;;;;;;3.83;1.50;;;25.00;54.40;;;;;;5054549;28;20387;-68
2021/08/25 04:07:43;;;;;;;1.90;1.40;;;25.00;54.20;;;;;;5022525;28;20399;-69
2021/08/25 04:10:09;;;;;;;2.37;1.47;;;25.00;54.30;;;;;;5022889;28;20394;-69
2021/08/25 04:12:35;;;;;;;7.50;1.70;;;25.00;54.10;;;;;;5021116;28;20426;-69
2021/08/25 04:15:02;;;;;;;4.72;1.60;;;25.00;54.00;;;;;;5022920;28;20393;-69
2021/08/25 04:17:27;;;;;;;7.15;2.30;;;25.00;54.00;;;;;;5021792;28;20398;-66
2021/08/25 04:19:53;;;;;;;5.47;1.90;;;25.00;53.90;;;;;;5021866;28;20403;-66
2021/08/25 04:22:19;;;;;;;3.30;1.60;;;24.90;53.80;;;;;;5022532;28;20508;-69
2021/08/25 04:24:44;;;;;;;4.33;1.40;;;24.90;53.80;;;;;;5022933;28;20765;-69
2021/08/25 04:27:10;;;;;;;5.23;1.83;;;24.90;53.80;;;;;;5022436;28;20449;-68
2021/08/25 04:29:36;;;;;;;3.22;1.60;;;24.90;53.80;;;;;;5022264;28;20394;-65
2021/08/25 04:32:02;;;;;;;2.67;1.50;;;24.90;53.80;;;;;;5022648;28;20465;-68
2021/08/25 04:34:27;;;;;;;2.05;1.50;;;24.90;53.80;;;;;;5022235;28;20862;-67
2021/08/25 04:36:53;;;;;;;2.27;1.50;;;24.90;53.80;;;;;;5022273;28;21051;-69
2021/08/25 04:39:18;;;;;;;2.17;1.38;;;24.90;53.60;;;;;;5022322;28;20425;-67
2021/08/25 04:41:44;;;;;;;3.57;2.37;;;24.90;53.80;;;;;;5022318;28;20462;-69
2021/08/25 04:44:10;;;;;;;4.43;2.50;;;24.90;53.50;;;;;;5022416;28;20905;-69
2021/08/25 04:46:35;;;;;;;5.23;2.80;;;24.90;53.10;;;;;;5022436;28;20400;-67
2021/08/25 04:49:01;;;;;;;3.17;2.23;;;24.80;52.80;;;;;;5022207;28;20402;-70
2021/08/25 04:51:26;;;;;;;3.47;2.90;;;24.80;52.80;;;;;;5022293;28;20403;-69
2021/08/25 04:53:52;;;;;;;3.10;2.80;;;24.80;53.10;;;;;;5022024;28;20387;-68
2021/08/25 04:56:18;;;;;;;3.40;2.80;;;24.80;52.80;;;;;;5022516;28;20397;-69
2021/08/25 04:58:43;;;;;;;4.50;2.60;;;24.80;52.70;;;;;;5020781;28;20396;-67
2021/08/25 05:01:09;;;;;;;5.57;3.58;;;24.80;52.90;;;;;;5022158;28;20433;-66
2021/08/25 05:03:35;;;;;;;4.20;3.47;;;24.80;52.60;;;;;;5021799;28;20474;-67
2021/08/25 05:06:11;;;;;;;4.60;2.90;;;24.80;52.40;;;;;;5022042;28;20847;-66
2021/08/25 05:08:37;;;;;;;4.25;3.03;;;24.80;52.10;;;;;;5022049;28;20450;-69
2021/08/25 05:11:04;;;;;;;4.68;3.42;;;24.80;51.80;;;;;;5021955;28;20395;-65
2021/08/25 05:13:31;;;;;;;4.38;3.45;;;24.70;51.50;;;;;;5022029;28;20383;-67
2021/08/25 05:15:57;;;;;;;3.78;3.35;;;24.80;51.30;;;;;;5021914;28;20399;-69
2021/08/25 05:18:23;;;;;;;4.90;3.78;;;24.70;50.90;;;;;;5021855;28;20992;-69
2021/08/25 05:20:48;;;;;;;4.00;3.33;;;24.70;50.90;;;;;;5022072;28;20879;-67
2021/08/25 05:23:14;;;;;;;4.70;3.38;;;24.70;50.70;;;;;;5021901;28;20445;-70
2021/08/25 05:25:39;;;;;;;5.00;3.47;;;24.70;50.60;;;;;;5021636;28;20605;-69
2021/08/25 05:28:05;;;;;;;4.95;3.40;;;24.70;50.20;;;;;;5021862;28;20402;-69
2021/08/25 05:30:31;;;;;;;4.82;3.50;;;24.70;50.20;;;;;;5024260;28;20391;-69
2021/08/25 05:32:56;;;;;;;4.30;3.47;;;24.70;50.20;;;;;;5024144;28;20860;-67
2021/08/25 05:35:23;;;;;;;5.88;3.78;;;24.70;49.90;;;;;;5025747;28;20394;-65
2021/08/25 05:37:50;;;;;;;4.50;3.60;;;24.60;49.70;;;;;;5025130;28;20398;-70
2021/08/25 05:40:17;;;;;;;5.10;3.70;;;24.60;50.00;;;;;;5024967;28;20422;-66
2021/08/25 05:42:44;;;;;;;5.35;3.97;;;24.60;50.20;;;;;;5025605;28;20395;-66
2021/08/25 05:45:10;;;;;;;5.03;4.00;;;24.60;49.90;;;;;;5025696;28;20390;-69
2021/08/25 05:47:36;;;;;;;4.40;3.90;;;24.60;50.00;;;;;;5024928;28;20401;-69
2021/08/25 05:50:02;;;;;;;4.30;3.90;;;24.60;50.00;;;;;;5025515;28;20387;-68
2021/08/25 05:52:28;;;;;;;4.93;3.93;;;24.60;49.80;;;;;;5025186;28;20892;-69
2021/08/25 05:54:54;;;;;;;4.30;3.70;;;24.60;50.00;;;;;;5024095;28;20391;-67
2021/08/25 05:57:19;;;;;;;4.43;3.90;;;24.60;50.10;;;;;;5025287;28;20395;-68
2021/08/25 05:59:45;;;;;;;4.57;3.97;;;24.60;50.00;;;;;;5024705;28;20386;-67
2021/08/25 06:02:10;;;;;;;4.80;3.80;;;24.50;50.10;;;;;;5023415;28;20495;-69
2021/08/25 06:04:36;;;;;;;6.00;4.20;;;24.50;50.10;;;;;;5025118;28;20402;-69
2021/08/25 06:07:06;;;;;;;5.10;4.28;;;24.50;50.70;;;;;;5025285;28;20750;-69
2021/08/25 06:09:32;;;;;;;7.22;4.25;;;24.50;49.70;;;;;;5024575;28;20906;-70
2021/08/25 06:11:57;;;;;;;4.80;3.70;;;24.50;50.20;;;;;;5024436;28;20399;-67
2021/08/25 06:14:23;;;;;;;6.00;4.00;;;24.50;50.20;;;;;;5024865;28;20387;-70
2021/08/25 06:16:49;;;;;;;3.90;3.57;;;24.30;50.40;;;;;;5024895;28;20464;-69
2021/08/25 06:19:14;;;;;;;5.10;4.30;;;24.30;50.20;;;;;;5024771;28;20957;-68
2021/08/25 06:21:44;;;;;;;5.93;3.90;;;24.40;50.40;;;;;;5024198;28;20959;-69
2021/08/25 06:24:10;;;;;;;4.05;3.65;;;24.40;50.20;;;;;;5024681;28;20390;-70
2021/08/25 06:26:35;;;;;;;4.47;3.58;;;24.40;50.10;;;;;;5022794;28;20399;-69
2021/08/25 06:29:01;;;;;;;4.30;3.80;;;24.40;50.00;;;;;;5024242;28;20391;-68
2021/08/25 06:31:26;;;;;;;4.68;3.97;;;24.40;50.10;;;;;;5024662;28;20914;-67
2021/08/25 06:33:52;;;;;;;5.73;4.20;;;24.50;50.00;;;;;;5023962;28;20452;-69
2021/08/25 06:36:18;;;;;;;4.60;3.90;;;24.50;50.00;;;;;;5024580;28;20493;-69
2021/08/25 06:38:43;;;;;;;5.97;3.90;;;24.40;49.70;;;;;;5024095;28;20426;-69
2021/08/25 06:41:09;;;;;;;6.05;4.13;;;24.50;49.90;;;;;;5022014;28;20934;-68
2021/08/25 06:43:35;;;;;;;5.15;3.90;;;24.40;49.70;;;;;;5024284;28;20414;-69
2021/08/25 06:46:01;;;;;;;4.73;3.70;;;24.50;49.80;;;;;;5022419;28;20398;-69
2021/08/25 06:48:27;;;;;;;5.45;4.00;;;24.40;49.90;;;;;;5024357;28;20398;-69
2021/08/25 06:50:53;;;;;;;5.63;3.93;;;24.50;49.90;;;;;;5024250;28;20403;-69
2021/08/25 06:53:21;;;;;;;4.63;3.78;;;24.40;49.80;;;;;;5024111;28;20458;-67
2021/08/25 06:55:47;;;;;;;5.05;3.63;;;24.50;49.80;;;;;;5023252;28;20396;-69
2021/08/25 06:58:13;;;;;;;5.43;3.80;;;24.50;49.80;;;;;;5023886;28;20442;-68
2021/08/25 07:00:38;;;;;;;4.70;3.80;;;24.40;49.70;;;;;;5055906;28;20407;-68
2021/08/25 07:03:04;;;;;;;5.15;3.60;;;24.40;49.70;;;;;;5023835;28;20395;-68
2021/08/25 07:05:30;;;;;;;4.83;3.30;;;24.40;49.60;;;;;;5024058;28;20883;-69
2021/08/25 07:07:55;;;;;;;4.90;3.47;;;24.40;49.60;;;;;;5022375;28;20394;-68
2021/08/25 07:10:22;;;;;;;5.90;3.33;;;24.40;49.80;;;;;;5023928;28;20394;-68
2021/08/25 07:12:48;;;;;;;5.13;3.43;;;24.40;49.80;;;;;;5023766;28;20414;-68
2021/08/25 07:15:17;;;;;;;3.85;3.05;;;24.40;49.70;;;;;;5023869;28;20387;-68
2021/08/25 07:17:44;;;;;;;5.78;3.25;;;24.40;49.90;;;;;;5023145;28;20411;-68
2021/08/25 07:20:11;;;;;;;4.47;2.90;;;24.40;49.90;;;;;;5023886;28;20401;-69
2021/08/25 07:22:37;;;;;;;4.47;2.90;;;24.40;50.10;;;;;;5023554;28;20403;-68
2021/08/25 07:25:04;;;;;;;3.67;2.97;;;24.40;50.10;;;;;;5023851;28;20387;-68
2021/08/25 07:27:30;;;;;;;3.65;3.00;;;24.40;50.30;;;;;;5023703;28;20402;-69
2021/08/25 07:29:56;;;;;;;3.33;2.80;;;24.40;50.50;;;;;;5022971;28;21258;-68
2021/08/25 07:32:21;;;;;;;3.80;2.85;;;24.40;50.50;;;;;;5055421;28;20427;-67
2021/08/25 07:34:47;;;;;;;3.23;2.80;;;24.40;50.60;;;;;;5023254;28;20736;-68
2021/08/25 07:37:13;;;;;;;3.05;2.53;;;24.40;50.80;;;;;;5023653;28;21355;-68
2021/08/25 07:39:38;;;;;;;3.50;2.60;;;24.40;50.80;;;;;;5054906;28;20478;-68
2021/08/25 07:42:04;;;;;;;4.20;3.00;;;24.40;50.80;;;;;;5021796;28;20430;-68
2021/08/25 07:44:30;;;;;;;3.60;2.80;;;24.50;51.00;;;;;;5023127;28;20391;-68
2021/08/25 07:46:55;;;;;;;3.60;2.42;;;24.40;50.90;;;;;;5023254;28;20401;-67
2021/08/25 07:49:21;;;;;;;3.23;2.47;;;24.40;51.00;;;;;;5055012;28;20927;-68
2021/08/25 07:51:48;;;;;;;4.13;2.80;;;24.50;51.10;;;;;;5021229;28;20399;-68
2021/08/25 07:54:14;;;;;;;3.33;2.72;;;24.50;51.20;;;;;;5021819;28;20907;-69
2021/08/25 07:56:39;;;;;;;4.60;2.83;;;24.50;51.20;;;;;;5022963;28;20403;-69
2021/08/25 07:59:05;;;;;;;3.43;2.70;;;24.50;51.10;;;;;;5021861;28;20898;-68
2021/08/25 08:01:31;;;;;;;2.90;2.42;;;24.50;51.20;;;;;;5022719;28;20764;-68
2021/08/25 08:03:57;;;;;;;2.92;2.30;;;24.40;51.20;;;;;;5021195;28;20394;-66
2021/08/25 08:06:23;;;;;;;4.10;2.60;;;24.50;51.20;;;;;;5022923;28;20402;-68
2021/08/25 08:08:48;;;;;;;3.38;2.60;;;24.50;51.30;;;;;;5022813;28;20390;-68
2021/08/25 08:11:14;;;;;;;3.40;2.72;;;24.50;51.30;;;;;;5020906;28;20451;-68
2021/08/25 08:13:40;;;;;;;3.38;2.70;;;24.40;51.30;;;;;;5021991;28;20379;-67
2021/08/25 08:16:06;;;;;;;3.05;2.40;;;24.50;51.40;;;;;;5022738;28;20533;-67
2021/08/25 08:18:35;;;;;;;3.17;2.40;;;24.40;51.40;;;;;;5022344;28;20544;-68
2021/08/25 08:21:04;;;;;;;3.08;2.55;;;24.50;51.40;;;;;;5021180;28;20913;-68
2021/08/25 08:23:33;;;;;;;3.30;2.33;;;24.50;51.40;;;;;;5022176;28;20418;-67
2021/08/25 08:25:58;;;;;;;3.17;2.20;;;24.50;51.50;;;;;;5022308;28;20427;-68
2021/08/25 08:28:24;;;;;;;3.00;2.40;;;24.50;51.40;;;;;;5054503;28;20492;-67
2021/08/25 08:30:50;;;;;;;3.08;2.30;;;24.40;51.50;;;;;;5020969;28;20902;-68
2021/08/25 08:33:16;;;;;;;2.80;2.40;;;24.50;51.60;;;;;;5022503;28;20407;-68
2021/08/25 08:35:41;;;;;;;3.33;2.38;;;24.40;51.60;;;;;;5020554;28;20405;-68
2021/08/25 08:38:08;;;;;;;2.90;2.10;;;24.50;51.60;;;;;;5022347;28;20482;-68
2021/08/25 08:40:34;;;;;;;2.57;2.00;;;24.50;51.60;;;;;;5020827;28;20418;-67
2021/08/25 08:43:08;;;;;;;3.20;2.40;;;24.50;51.60;;;;;;5022154;28;20775;-68
2021/08/25 08:45:39;;;;;;;2.97;2.30;;;24.50;51.60;;;;;;5020895;28;20387;-68
2021/08/25 08:48:08;;;;;;;2.30;2.03;;;24.50;51.60;;;;;;5020678;28;20490;-69
2021/08/25 08:50:35;;;;;;;2.78;2.03;;;24.50;51.60;;;;;;5022161;28;20395;-68
2021/08/25 08:53:02;;;;;;;2.55;2.10;;;24.50;51.60;;;;;;5021961;28;20422;-67
2021/08/25 08:55:28;;;;;;;2.38;2.10;;;24.50;51.60;;;;;;5020795;28;20395;-69
2021/08/25 08:57:53;;;;;;;3.00;2.30;;;24.50;51.70;;;;;;5021607;28;20406;-68
2021/08/25 09:00:19;;;;;;;2.88;1.98;;;24.50;51.70;;;;;;5022075;28;20474;-67
2021/08/25 09:02:46;;;;;;;2.70;2.00;;;24.50;51.70;;;;;;5022121;28;20903;-68
2021/08/25 09:05:22;;;;;;;2.90;2.17;;;24.50;51.70;;;;;;5022874;28;20391;-67
2021/08/25 09:07:49;;;;;;;2.92;2.13;;;24.50;51.70;;;;;;5057702;28;21057;-68
2021/08/25 09:10:24;;;;;;;2.55;2.00;;;24.50;51.70;;;;;;5025908;28;20398;-68
2021/08/25 09:12:54;;;;;;;2.53;2.00;;;24.50;51.70;;;;;;5026235;28;20698;-68
2021/08/25 09:15:22;;;;;;;2.50;2.00;;;24.50;51.70;;;;;;5026251;28;20470;-69
2021/08/25 09:17:54;;;;;;;2.60;2.00;;;24.50;51.70;;;;;;5025584;28;20461;-69
2021/08/25 09:20:20;;;;;;;2.40;1.95;;;24.50;51.70;;;;;;5041162;28;21002;-68
2021/08/25 09:22:46;;;;;;;2.80;1.88;;;24.50;51.70;;;;;;5024324;28;20407;-68
2021/08/25 09:25:31;;;;;;;2.43;1.80;;;24.50;51.70;;;;;;5026008;28;20889;-68
2021/08/25 09:27:57;;;;;;;2.50;1.83;;;24.50;51.70;;;;;;5024957;28;20407;-69
2021/08/25 09:30:22;;;;;;;2.67;2.10;;;24.50;51.70;;;;;;5025682;28;20402;-68
2021/08/25 09:32:48;;;;;;;2.60;1.88;;;24.50;51.80;;;;;;5057762;28;20502;-69
2021/08/25 09:35:14;;;;;;;2.50;1.90;;;24.50;51.90;;;;;;5025679;28;20391;-68
2021/08/25 09:37:51;;;;;;;1.93;1.50;;;24.50;51.70;;;;;;5025548;28;20399;-67
2021/08/25 09:40:17;;;;;;;2.40;1.75;;;24.50;51.80;;;;;;5056992;28;20790;-68
2021/08/25 09:42:47;;;;;;;2.00;1.67;;;24.50;51.90;;;;;;5057325;28;20411;-67
2021/08/25 09:45:18;;;;;;;2.50;1.80;;;24.50;51.90;;;;;;5025700;28;20740;-69
2021/08/25 09:47:52;;;;;;;2.78;2.00;;;24.50;51.90;;;;;;5025064;28;20915;-68
2021/08/25 09:50:20;;;;;;;2.38;1.88;;;24.50;52.00;;;;;;5024180;28;20431;-68
2021/08/25 09:52:47;;;;;;;2.63;2.10;;;24.50;52.00;;;;;;5024039;28;20417;-67
2021/08/25 09:55:14;;;;;;;2.50;1.80;;;24.40;52.00;;;;;;5023910;28;20403;-68
2021/08/25 09:57:42;;;;;;;2.90;1.92;;;24.40;52.20;;;;;;5025576;28;20419;-68
2021/08/25 10:00:10;;;;;;;2.60;2.03;;;24.50;52.20;;;;;;5025227;28;20494;-68
2021/08/25 10:02:36;;;;;;;2.70;1.80;;;24.40;52.10;;;;;;5024973;28;20411;-68
2021/08/25 10:05:02;;;;;;;2.55;1.77;;;24.40;52.10;;;;;;5024058;28;20387;-68
2021/08/25 10:07:28;;;;;;;3.00;1.80;;;24.40;52.00;;;;;;5023842;28;20399;-68
2021/08/25 10:09:55;;;;;;;2.20;1.80;;;24.50;52.10;;;;;;5024576;28;20414;-68
2021/08/25 10:12:21;;;;;;;3.08;2.00;;;24.50;52.10;;;;;;5024937;28;20452;-69
2021/08/25 10:14:46;;;;;;;2.78;1.92;;;24.50;52.00;;;;;;5056824;28;20402;-68
2021/08/25 10:17:44;;;;;;;2.50;1.83;;;24.50;52.00;;;;;;5055638;28;20395;-68
2021/08/25 10:20:25;;;;;;;2.67;1.90;;;24.50;52.00;;;;;;5012109;28;20452;-68
2021/08/25 10:22:52;;;;;;;2.33;1.83;;;24.50;52.00;;;;;;5024892;28;20407;-68
2021/08/25 10:25:18;;;;;;;2.47;1.80;;;24.50;52.10;;;;;;5023260;28;20951;-69
2021/08/25 10:28:13;;;;;;;2.30;1.73;;;24.60;52.10;;;;;;5024286;28;20494;-68
2021/08/25 10:30:47;;;;;;;2.60;1.90;;;24.60;52.00;;;;;;5024174;28;20403;-68
2021/08/25 10:33:14;;;;;;;2.47;1.90;;;24.60;52.00;;;;;;5023107;28;20399;-67
2021/08/25 10:35:42;;;;;;;2.30;1.88;;;24.60;52.00;;;;;;5024698;28;20391;-68
2021/08/25 10:38:16;;;;;;;2.60;1.80;;;24.60;51.90;;;;;;5022966;28;20401;-68
2021/08/25 10:40:41;;;;;;;2.70;1.92;;;24.60;51.90;;;;;;5022607;28;20411;-69
2021/08/25 10:43:07;;;;;;;2.42;1.67;;;24.60;52.00;;;;;;5022484;28;20402;-69
2021/08/25 10:45:39;;;;;;;2.37;1.80;;;24.60;51.90;;;;;;5023932;28;20871;-68
2021/08/25 10:48:09;;;;;;;2.78;2.00;;;24.60;51.90;;;;;;5055420;28;20418;-68
2021/08/25 10:50:54;;;;;;;2.15;1.70;;;24.60;51.90;;;;;;5024423;28;20717;-68
2021/08/25 10:53:28;;;;;;;2.67;2.08;;;24.60;51.90;;;;;;5055996;28;20392;-68
2021/08/25 10:56:13;;;;;;;2.83;2.10;;;24.60;51.80;;;;;;5023905;28;20398;-68
2021/08/25 10:58:58;;;;;;;2.33;1.80;;;24.60;51.80;;;;;;5024214;28;21020;-67
2021/08/25 11:01:29;;;;;;;2.43;1.90;;;24.70;51.90;;;;;;5024156;28;20497;-68
2021/08/25 11:03:59;;;;;;;3.05;2.00;;;24.60;51.80;;;;;;5022552;28;20967;-67
2021/08/25 11:06:34;;;;;;;3.22;1.92;;;24.60;51.80;;;;;;5024170;28;20391;-68
2021/08/25 11:09:34;;;;;;;2.33;1.77;;;24.70;51.80;;;;;;5023764;28;20390;-67
2021/08/25 11:12:01;;;;;;;2.00;1.52;;;24.70;51.80;;;;;;5011458;28;20421;-70
2021/08/25 11:14:33;;;;;;;2.38;1.75;;;24.70;51.70;;;;;;5022398;28;20958;-69
2021/08/25 11:17:09;;;;;;;2.40;1.85;;;24.70;51.70;;;;;;5039196;28;20418;-68
2021/08/25 11:19:52;;;;;;;3.13;1.92;;;24.70;51.70;;;;;;5055267;28;20517;-67
2021/08/25 11:22:36;;;;;;;2.40;1.80;;;24.70;51.60;;;;;;5023776;28;20454;-67
2021/08/25 11:25:08;;;;;;;2.17;1.63;;;24.70;51.70;;;;;;5022333;28;20395;-67
2021/08/25 11:27:35;;;;;;;2.42;1.70;;;24.70;51.70;;;;;;5023175;28;20453;-68
2021/08/25 11:30:16;;;;;;;2.63;2.00;;;24.70;51.80;;;;;;5021881;28;20423;-68
2021/08/25 11:32:53;;;;;;;2.42;1.70;;;24.70;51.70;;;;;;5022387;28;20477;-68
2021/08/25 11:35:31;;;;;;;2.25;1.50;;;24.70;51.60;;;;;;5023107;28;20441;-69
2021/08/25 11:38:00;;;;;;;2.80;1.80;;;24.70;51.60;;;;;;5020926;28;20949;-69
2021/08/25 11:40:28;;;;;;;2.63;1.63;;;24.70;51.60;;;;;;5054906;28;20488;-69
2021/08/25 11:42:54;;;;;;;2.65;1.63;;;24.80;51.70;;;;;;5055029;28;20461;-67
2021/08/25 11:45:28;;;;;;;2.92;1.80;;;24.80;51.60;;;;;;5023352;28;20399;-68
2021/08/25 11:47:56;;;;;;;2.40;1.70;;;24.70;51.60;;;;;;5022702;28;20397;-66
2021/08/25 11:50:24;;;;;;;2.25;1.60;;;24.80;51.60;;;;;;5023104;28;20383;-68
2021/08/25 11:52:51;;;;;;;2.72;1.80;;;24.70;51.60;;;;;;5021783;28;20409;-69
2021/08/25 11:55:17;;;;;;;2.50;1.70;;;24.70;51.50;;;;;;5022633;28;20383;-69
2021/08/25 11:57:50;;;;;;;3.00;1.83;;;24.80;51.50;;;;;;5020805;28;20915;-68
2021/08/25 12:00:18;;;;;;;2.50;1.88;;;24.80;51.50;;;;;;5022549;28;20406;-68
2021/08/25 12:03:01;;;;;;;2.70;1.85;;;24.80;51.50;;;;;;5021557;28;20465;-68
2021/08/25 12:05:33;;;;;;;2.55;1.80;;;24.80;51.50;;;;;;5022936;28;20387;-69
2021/08/25 12:08:07;;;;;;;2.50;1.75;;;24.80;51.40;;;;;;5022486;28;20394;-68
2021/08/25 12:10:44;;;;;;;2.20;1.67;;;24.80;51.40;;;;;;5022904;28;20895;-69
2021/08/25 12:13:12;;;;;;;2.60;1.80;;;24.80;51.50;;;;;;5021202;28;20407;-67
2021/08/25 12:15:48;;;;;;;2.67;1.90;;;24.80;51.40;;;;;;5022697;28;20379;-68
2021/08/25 12:18:20;;;;;;;2.55;1.70;;;24.80;51.40;;;;;;5022352;28;20423;-68
2021/08/25 12:20:48;;;;;;;2.70;1.90;;;24.80;51.40;;;;;;5021529;28;20468;-68
2021/08/25 12:23:16;;;;;;;2.70;2.00;;;25.00;51.40;;;;;;5022764;28;20407;-67
2021/08/25 12:26:02;;;;;;;2.60;1.87;;;24.90;51.30;;;;;;5022421;28;20389;-68
2021/08/25 12:28:36;;;;;;;4.78;2.20;;;24.90;51.20;;;;;;5022422;28;20433;-68
2021/08/25 12:31:16;;;;;;;4.57;2.10;;;24.90;51.30;;;;;;5022318;28;20474;-69
2021/08/25 12:33:47;;;;;;;3.45;2.50;;;25.00;50.80;;;;;;5054368;28;20401;-68
2021/08/25 12:36:23;;;;;;;4.47;2.63;;;25.00;50.50;;;;;;5022104;28;20429;-69
2021/08/25 12:38:50;;;;;;;5.05;2.40;;;25.00;49.60;;;;;;5021667;28;20391;-69
2021/08/25 12:41:17;;;;;;;5.30;2.70;;;25.10;49.60;;;;;;5021881;28;20883;-69
2021/08/25 12:43:43;;;;;;;4.47;2.90;;;25.10;49.10;;;;;;5022468;28;20387;-69
2021/08/25 12:46:09;;;;;;;4.57;2.97;;;25.10;49.40;;;;;;5021763;28;20759;-69
2021/08/25 12:48:35;;;;;;;3.90;2.40;;;25.10;48.60;;;;;;5020844;28;20403;-68
2021/08/25 12:51:01;;;;;;;3.97;2.30;;;25.60;51.30;;;;;;5022085;28;20727;-68